createdAt,value
2023-04-24T00:01:51.215Z,1.55
2023-04-24T00:04:18.713Z,1.40
2023-04-24T00:06:50.411Z,1.40
2023-04-24T00:09:17.603Z,1.30
2023-04-24T00:11:44.862Z,1.27
2023-04-24T00:14:12.201Z,1.67
2023-04-24T00:16:39.440Z,1.63
2023-04-24T00:19:07.626Z,1.30
2023-04-24T00:21:34.939Z,1.30
2023-04-24T00:24:02.294Z,1.42
2023-04-24T00:26:29.617Z,1.30
2023-04-24T00:28:57.159Z,1.38
2023-04-24T00:31:24.568Z,1.35
2023-04-24T00:33:51.798Z,1.30
2023-04-24T00:36:21.577Z,1.23
2023-04-24T00:38:48.939Z,1.30
2023-04-24T00:41:16.536Z,1.30
2023-04-24T00:43:43.780Z,1.60
2023-04-24T00:46:11.648Z,1.25
2023-04-24T00:48:40.973Z,1.58
2023-04-24T00:51:08.369Z,1.67
2023-04-24T00:53:35.659Z,1.35
2023-04-24T00:56:03.964Z,1.35
2023-04-24T00:58:32.234Z,1.23
2023-04-24T01:01:00.420Z,1.17
2023-04-24T01:03:31.584Z,1.40
2023-04-24T01:05:59.373Z,1.25
2023-04-24T01:08:28.366Z,1.40
2023-04-24T01:13:22.924Z,1.20
2023-04-24T01:15:50.363Z,1.10
2023-04-24T01:18:17.630Z,1.30
2023-04-24T01:20:46.120Z,1.15
2023-04-24T01:23:13.399Z,1.15
2023-04-24T01:25:40.865Z,1.20
2023-04-24T01:28:08.228Z,1.20
2023-04-24T01:30:35.621Z,1.30
2023-04-24T01:33:03.674Z,1.02
2023-04-24T01:35:31.132Z,1.00
2023-04-24T01:37:58.439Z,1.23
2023-04-24T01:40:25.984Z,1.17
2023-04-24T01:42:53.311Z,1.05
2023-04-24T01:45:20.664Z,1.05
2023-04-24T01:47:49.895Z,1.08
2023-04-24T01:50:17.218Z,1.00
2023-04-24T01:52:44.672Z,1.25
2023-04-24T01:55:12.081Z,1.42
2023-04-24T01:57:39.639Z,1.15
2023-04-24T02:00:08.092Z,0.88
2023-04-24T02:02:35.888Z,1.08
2023-04-24T02:05:03.916Z,0.95
2023-04-24T02:07:31.196Z,1.27
2023-04-24T02:09:58.457Z,1.10
2023-04-24T02:12:25.696Z,1.10
2023-04-24T02:14:52.872Z,1.10
2023-04-24T02:17:20.508Z,1.05
2023-04-24T02:19:47.734Z,1.33
2023-04-24T02:22:14.952Z,1.20
2023-04-24T02:24:42.213Z,1.02
2023-04-24T02:27:09.490Z,1.10
2023-04-24T02:29:36.682Z,0.90
2023-04-24T02:32:04.132Z,1.05
2023-04-24T02:34:31.538Z,1.00
2023-04-24T02:36:58.766Z,1.00
2023-04-24T02:39:26.002Z,1.00
2023-04-24T02:41:53.288Z,1.00
2023-04-24T02:44:20.551Z,1.00
2023-04-24T02:46:47.720Z,1.10
2023-04-24T02:49:14.917Z,1.00
2023-04-24T02:51:42.246Z,1.00
2023-04-24T02:54:10.989Z,1.17
2023-04-24T02:56:38.304Z,0.98
2023-04-24T02:59:05.545Z,1.08
2023-04-24T03:01:32.878Z,1.10
2023-04-24T03:04:00.439Z,0.98
2023-04-24T03:06:28.088Z,1.08
2023-04-24T03:08:55.644Z,1.13
2023-04-24T03:11:22.871Z,1.08
2023-04-24T03:13:50.078Z,1.00
2023-04-24T03:16:17.485Z,1.10
2023-04-24T03:18:44.648Z,1.10
2023-04-24T03:21:12.496Z,1.17
2023-04-24T03:23:39.695Z,0.95
2023-04-24T03:26:06.935Z,0.85
2023-04-24T03:28:34.168Z,1.00
2023-04-24T03:31:01.514Z,0.82
2023-04-24T03:33:28.753Z,0.93
2023-04-24T03:35:55.974Z,1.00
2023-04-24T03:38:23.186Z,1.10
2023-04-24T03:40:50.440Z,0.93
2023-04-24T03:43:17.678Z,1.08
2023-04-24T03:45:44.926Z,0.90
2023-04-24T03:48:12.185Z,1.02
2023-04-24T03:50:39.377Z,0.90
2023-04-24T03:53:06.636Z,0.98
2023-04-24T03:55:33.867Z,1.00
2023-04-24T03:58:01.054Z,0.80
2023-04-24T04:00:28.730Z,1.00
2023-04-24T04:02:56.264Z,1.00
2023-04-24T04:05:23.758Z,0.98
2023-04-24T04:07:51.148Z,0.90
2023-04-24T04:10:18.378Z,1.10
2023-04-24T04:12:45.637Z,0.93
2023-04-24T04:15:12.816Z,0.90
2023-04-24T04:17:40.146Z,1.00
2023-04-24T04:20:11.655Z,0.70
2023-04-24T04:22:38.899Z,0.90
2023-04-24T04:25:06.375Z,1.05
2023-04-24T04:27:33.646Z,0.93
2023-04-24T04:30:05.881Z,0.82
2023-04-24T04:32:36.497Z,0.70
2023-04-24T04:35:04.163Z,0.95
2023-04-24T04:37:32.330Z,0.70
2023-04-24T04:40:00.109Z,1.10
2023-04-24T04:42:28.041Z,1.10
2023-04-24T04:44:55.399Z,1.10
2023-04-24T04:47:26.073Z,0.80
2023-04-24T04:49:53.298Z,0.93
2023-04-24T04:52:20.702Z,1.10
2023-04-24T04:54:47.993Z,0.93
2023-04-24T04:57:15.237Z,1.10
2023-04-24T04:59:42.748Z,1.00
2023-04-24T05:02:10.979Z,0.90
2023-04-24T05:04:38.514Z,1.10
2023-04-24T05:07:06.522Z,1.30
2023-04-24T05:09:34.260Z,1.20
2023-04-24T05:12:01.573Z,1.10
2023-04-24T05:14:28.832Z,1.05
2023-04-24T05:16:56.221Z,1.17
2023-04-24T05:19:23.508Z,1.20
2023-04-24T05:21:50.728Z,1.23
2023-04-24T05:24:17.967Z,1.20
2023-04-24T05:26:45.308Z,1.20
2023-04-24T05:29:12.927Z,1.25
2023-04-24T05:31:40.421Z,1.20
2023-04-24T05:34:07.669Z,1.25
2023-04-24T05:36:34.950Z,1.20
2023-04-24T05:39:02.415Z,1.63
2023-04-24T05:41:31.978Z,1.38
2023-04-24T05:43:59.191Z,1.17
2023-04-24T05:46:26.784Z,1.20
2023-04-24T05:48:53.984Z,1.10
2023-04-24T05:51:21.528Z,1.15
2023-04-24T05:53:48.755Z,1.20
2023-04-24T05:56:16.807Z,1.00
2023-04-24T05:58:44.296Z,1.10
2023-04-24T06:01:11.569Z,1.45
2023-04-24T06:03:40.509Z,2.20
2023-04-24T06:08:36.245Z,1.90
2023-04-24T06:11:04.747Z,1.60
2023-04-24T06:13:32.469Z,1.75
2023-04-24T06:15:59.754Z,1.13
2023-04-24T06:18:27.107Z,1.10
2023-04-24T06:20:54.415Z,1.02
2023-04-24T06:23:21.706Z,1.15
2023-04-24T06:25:49.161Z,1.02
2023-04-24T06:28:16.325Z,1.20
2023-04-24T06:30:44.390Z,0.93
2023-04-24T06:33:20.348Z,1.10
2023-04-24T06:35:48.388Z,1.00
2023-04-24T06:38:16.961Z,0.88
2023-04-24T06:40:44.319Z,0.98
2023-04-24T06:43:11.994Z,0.77
2023-04-24T06:45:40.834Z,1.00
2023-04-24T06:50:36.336Z,0.90
2023-04-24T06:53:03.775Z,0.88
2023-04-24T06:55:31.869Z,0.90
2023-04-24T06:57:59.066Z,0.80
2023-04-24T07:00:26.328Z,0.80
2023-04-24T07:02:54.015Z,0.98
2023-04-24T07:05:21.217Z,1.05
2023-04-24T07:07:50.297Z,1.35
2023-04-24T07:10:17.722Z,0.80
2023-04-24T07:12:44.986Z,0.73
2023-04-24T07:15:12.307Z,0.75
2023-04-24T07:17:39.664Z,1.05
2023-04-24T07:20:10.275Z,0.65
2023-04-24T07:22:38.412Z,0.80
2023-04-24T07:25:06.036Z,0.60
2023-04-24T07:27:33.829Z,0.50
2023-04-24T07:30:01.065Z,0.50
2023-04-24T07:32:28.248Z,0.60
2023-04-24T07:34:56.127Z,0.68
2023-04-24T07:37:23.655Z,0.52
2023-04-24T07:39:50.876Z,0.57
2023-04-24T07:42:18.057Z,0.73
2023-04-24T07:44:45.277Z,0.60
2023-04-24T07:47:12.457Z,0.60
2023-04-24T07:49:39.643Z,0.60
2023-04-24T07:52:06.847Z,0.35
2023-04-24T07:54:34.013Z,0.60
2023-04-24T07:57:01.814Z,0.60
2023-04-24T07:59:28.989Z,0.50
2023-04-24T08:01:56.575Z,0.60
2023-04-24T08:04:23.926Z,0.70
2023-04-24T08:06:51.328Z,0.50
2023-04-24T08:09:18.538Z,0.52
2023-04-24T08:11:46.133Z,0.50
2023-04-24T08:14:14.350Z,0.60
2023-04-24T08:16:41.989Z,0.60
2023-04-24T08:19:09.445Z,0.68
2023-04-24T08:21:36.622Z,0.60
2023-04-24T08:24:06.183Z,0.47
2023-04-24T08:26:33.383Z,0.70
2023-04-24T08:29:00.595Z,0.80
2023-04-24T08:31:28.057Z,0.68
2023-04-24T08:33:55.290Z,0.68
2023-04-24T08:36:23.810Z,0.60
2023-04-24T08:38:53.891Z,0.63
2023-04-24T08:41:22.255Z,0.73
2023-04-24T08:43:49.554Z,0.73
2023-04-24T08:46:17.670Z,0.80
2023-04-24T08:48:45.291Z,0.80
2023-04-24T08:51:12.754Z,0.55
2023-04-24T08:53:40.858Z,0.57
2023-04-24T08:56:08.325Z,0.57
2023-04-24T08:58:35.603Z,0.80
2023-04-24T09:01:03.460Z,0.88
2023-04-24T09:03:31.315Z,0.60
2023-04-24T09:05:59.194Z,0.70
2023-04-24T09:08:27.282Z,0.50
2023-04-24T09:10:54.496Z,0.60
2023-04-24T09:13:22.267Z,0.90
2023-04-24T09:15:49.558Z,0.90
2023-04-24T09:18:16.797Z,0.60
2023-04-24T09:21:04.952Z,0.50
2023-04-24T09:23:32.891Z,0.60
2023-04-24T09:26:02.342Z,0.80
2023-04-24T09:28:42.062Z,0.40
2023-04-24T09:31:19.398Z,0.65
2023-04-24T09:33:58.076Z,0.70
2023-04-24T09:36:35.115Z,0.70
2023-04-24T09:39:03.221Z,0.55
2023-04-24T09:41:30.670Z,0.70
2023-04-24T09:43:58.806Z,0.82
2023-04-24T09:46:32.857Z,0.70
2023-04-24T09:49:18.396Z,0.98
2023-04-24T09:51:45.712Z,0.90
2023-04-24T09:54:16.802Z,0.85
2023-04-24T09:56:46.292Z,0.73
2023-04-24T09:59:18.198Z,0.90
2023-04-24T10:01:45.910Z,0.80
2023-04-24T10:04:27.636Z,0.77
2023-04-24T10:06:56.986Z,0.50
2023-04-24T10:09:25.949Z,0.70
2023-04-24T10:14:23.634Z,0.70
2023-04-24T10:19:19.704Z,0.70
2023-04-24T10:21:47.976Z,0.63
2023-04-24T10:24:17.264Z,0.70
2023-04-24T10:26:45.727Z,0.52
2023-04-24T10:29:16.164Z,0.50
2023-04-24T10:31:46.320Z,0.40
2023-04-24T10:34:14.736Z,0.50
2023-04-24T10:36:44.862Z,0.68
2023-04-24T10:39:15.764Z,0.70
2023-04-24T10:41:43.402Z,0.70
2023-04-24T10:44:12.052Z,0.40
2023-04-24T10:46:40.780Z,0.68
2023-04-24T10:49:09.817Z,0.60
2023-04-24T10:54:36.562Z,0.73
2023-04-24T10:57:25.522Z,0.70
2023-04-24T11:02:21.720Z,0.80
2023-04-24T11:04:53.027Z,1.27
2023-04-24T11:07:22.649Z,0.90
2023-04-24T11:09:59.986Z,0.70
2023-04-24T11:12:28.569Z,0.68
2023-04-24T11:15:03.528Z,0.95
2023-04-24T11:17:32.778Z,1.10
2023-04-24T11:22:55.967Z,0.57
2023-04-24T11:25:24.248Z,0.70
2023-04-24T11:27:51.723Z,0.52
2023-04-24T11:30:22.293Z,0.55
2023-04-24T11:32:51.894Z,0.43
2023-04-24T11:35:26.116Z,0.57
2023-04-24T11:40:26.414Z,0.70
2023-04-24T11:42:56.356Z,0.50
2023-04-24T11:45:26.148Z,0.50
2023-04-24T11:47:53.410Z,0.50
2023-04-24T11:50:26.891Z,0.52
2023-04-24T11:52:54.401Z,0.60
2023-04-24T11:55:21.556Z,0.40
2023-04-24T11:57:50.739Z,0.60
2023-04-24T12:00:20.277Z,0.52
2023-04-24T12:02:49.114Z,0.50
2023-04-24T12:05:27.593Z,0.45
2023-04-24T12:07:55.401Z,0.50
2023-04-24T12:10:26.771Z,0.40
2023-04-24T12:12:54.733Z,0.47
2023-04-24T12:15:22.761Z,0.43
2023-04-24T12:17:52.679Z,0.47
2023-04-24T12:20:26.778Z,0.50
2023-04-24T12:22:58.449Z,0.52
2023-04-24T12:25:35.531Z,0.68
2023-04-24T12:28:06.022Z,0.45
2023-04-24T12:30:38.287Z,0.68
2023-04-24T12:33:05.640Z,0.30
2023-04-24T12:35:34.951Z,0.47
2023-04-24T12:38:09.993Z,0.50
2023-04-24T12:40:37.185Z,0.45
2023-04-24T12:43:13.562Z,0.40
2023-04-24T12:45:40.939Z,0.60
2023-04-24T12:48:08.188Z,0.43
2023-04-24T12:50:35.541Z,0.40
2023-04-24T12:53:02.779Z,0.57
2023-04-24T12:55:30.003Z,0.40
2023-04-24T12:57:57.251Z,0.55
2023-04-24T13:00:24.531Z,0.60
2023-04-24T13:02:52.095Z,0.65
2023-04-24T13:05:19.639Z,0.65
2023-04-24T13:07:46.825Z,0.50
2023-04-24T13:10:14.423Z,0.50
2023-04-24T13:12:41.850Z,0.45
2023-04-24T13:15:09.415Z,0.28
2023-04-24T13:17:36.629Z,0.32
2023-04-24T13:20:04.416Z,0.57
2023-04-24T13:22:31.854Z,0.68
2023-04-24T13:24:59.096Z,0.50
2023-04-24T13:27:26.306Z,0.55
2023-04-24T13:29:53.570Z,0.52
2023-04-24T13:32:21.220Z,0.50
2023-04-24T13:34:48.587Z,0.38
2023-04-24T13:37:16.929Z,0.50
2023-04-24T13:39:44.126Z,0.63
2023-04-24T13:42:11.719Z,0.40
2023-04-24T13:44:39.709Z,0.40
2023-04-24T13:47:07.038Z,0.40
2023-04-24T13:49:34.276Z,0.50
2023-04-24T13:52:01.541Z,0.47
2023-04-24T13:54:28.751Z,0.38
2023-04-24T13:56:58.577Z,0.50
2023-04-24T13:59:26.160Z,0.55
2023-04-24T14:01:53.804Z,0.40
2023-04-24T14:04:21.248Z,0.52
2023-04-24T14:06:48.636Z,0.60
2023-04-24T14:09:16.416Z,0.30
2023-04-24T14:11:43.658Z,0.50
2023-04-24T14:14:10.919Z,0.40
2023-04-24T14:16:38.202Z,0.52
2023-04-24T14:19:07.590Z,0.60
2023-04-24T14:21:35.492Z,0.45
2023-04-24T14:24:02.830Z,0.45
2023-04-24T14:26:30.110Z,0.63
2023-04-24T14:29:13.627Z,0.43
2023-04-24T14:31:41.760Z,0.70
2023-04-24T14:34:09.200Z,0.40
2023-04-24T14:36:36.795Z,0.55
2023-04-24T14:39:07.868Z,0.50
2023-04-24T14:41:36.834Z,0.50
2023-04-24T14:44:04.646Z,0.50
2023-04-24T14:46:31.983Z,0.60
2023-04-24T14:48:59.460Z,0.68
2023-04-24T14:51:26.697Z,0.70
2023-04-24T14:53:53.919Z,0.60
2023-04-24T14:56:21.238Z,0.75
2023-04-24T14:58:48.718Z,0.70
2023-04-24T15:01:17.687Z,0.60
2023-04-24T15:03:45.923Z,0.73
2023-04-24T15:06:13.631Z,0.50
2023-04-24T15:08:40.815Z,0.63
2023-04-24T15:11:08.203Z,0.60
2023-04-24T15:13:35.559Z,0.60
2023-04-24T15:16:04.391Z,0.60
2023-04-24T15:18:31.909Z,0.50
2023-04-24T15:20:59.191Z,0.70
2023-04-24T15:23:28.511Z,0.55
2023-04-24T15:25:55.860Z,0.60
2023-04-24T15:28:23.196Z,0.60
2023-04-24T15:30:50.789Z,0.50
2023-04-24T15:33:18.981Z,0.60
2023-04-24T15:35:46.360Z,0.60
2023-04-24T15:38:13.810Z,0.38
2023-04-24T15:40:41.244Z,0.52
2023-04-24T15:43:08.784Z,0.60
2023-04-24T15:45:36.398Z,0.60
2023-04-24T15:48:03.905Z,0.50
2023-04-24T15:50:31.428Z,1.13
2023-04-24T15:52:58.688Z,0.50
2023-04-24T15:55:25.970Z,0.60
2023-04-24T15:57:53.217Z,0.57
2023-04-24T16:00:21.350Z,0.50
2023-04-24T16:02:50.569Z,0.60
2023-04-24T16:05:19.942Z,0.50
2023-04-24T16:07:47.171Z,0.55
2023-04-24T16:10:14.446Z,0.70
2023-04-24T16:12:41.854Z,0.55
2023-04-24T16:15:09.973Z,0.47
2023-04-24T16:17:37.428Z,0.40
2023-04-24T16:20:05.616Z,0.50
2023-04-24T16:22:32.964Z,0.50
2023-04-24T16:25:00.543Z,0.70
2023-04-24T16:27:27.839Z,0.55
2023-04-24T16:29:57.021Z,0.55
2023-04-24T16:32:24.458Z,0.60
2023-04-24T16:34:54.871Z,0.60
2023-04-24T16:37:22.261Z,0.47
2023-04-24T16:39:49.570Z,0.63
2023-04-24T16:42:17.228Z,0.40
2023-04-24T16:44:44.784Z,0.50
2023-04-24T16:47:14.185Z,0.50
2023-04-24T16:49:41.752Z,0.45
2023-04-24T16:52:10.062Z,0.50
2023-04-24T16:54:37.432Z,0.50
2023-04-24T16:57:05.449Z,0.30
2023-04-24T16:59:33.948Z,0.50
2023-04-24T17:02:01.548Z,0.60
2023-04-24T17:04:29.125Z,0.50
2023-04-24T17:06:56.870Z,0.47
2023-04-24T17:09:24.199Z,0.50
2023-04-24T17:11:51.354Z,0.45
2023-04-24T17:14:18.872Z,0.45
2023-04-24T17:16:46.473Z,0.40
2023-04-24T17:19:13.688Z,0.40
2023-04-24T17:21:41.066Z,0.60
2023-04-24T17:24:08.295Z,0.60
2023-04-24T17:26:35.594Z,0.60
2023-04-24T17:29:02.821Z,0.50
2023-04-24T17:31:30.022Z,0.50
2023-04-24T17:33:57.570Z,0.40
2023-04-24T17:36:25.088Z,0.50
2023-04-24T17:38:54.937Z,0.43
2023-04-24T17:41:22.207Z,0.68
2023-04-24T17:43:49.538Z,0.40
2023-04-24T17:46:16.832Z,0.60
2023-04-24T17:48:44.020Z,0.50
2023-04-24T17:51:11.397Z,0.52
2023-04-24T17:53:39.476Z,0.50
2023-04-24T17:56:07.303Z,0.40
2023-04-24T17:58:35.505Z,0.50
2023-04-24T18:01:03.222Z,0.40
2023-04-24T18:03:30.593Z,0.50
2023-04-24T18:05:58.061Z,0.50
2023-04-24T18:08:25.336Z,0.40
2023-04-24T18:10:52.665Z,0.40
2023-04-24T18:13:19.906Z,0.45
2023-04-24T18:15:47.229Z,0.47
2023-04-24T18:18:15.310Z,0.40
2023-04-24T18:20:42.529Z,0.40
2023-04-24T18:23:09.710Z,0.45
2023-04-24T18:25:36.935Z,0.30
2023-04-24T18:28:04.195Z,0.40
2023-04-24T18:30:32.447Z,0.35
2023-04-24T18:33:00.015Z,0.40
2023-04-24T18:35:27.315Z,0.30
2023-04-24T18:37:54.547Z,0.40
2023-04-24T18:40:22.396Z,0.40
2023-04-24T18:42:49.951Z,0.55
2023-04-24T18:45:17.320Z,0.40
2023-04-24T18:47:44.711Z,0.30
2023-04-24T18:50:14.639Z,0.20
2023-04-24T18:52:41.956Z,0.40
2023-04-24T18:55:09.858Z,0.40
2023-04-24T18:57:37.125Z,0.30
2023-04-24T19:00:05.356Z,0.40
2023-04-24T19:02:34.602Z,0.20
2023-04-24T19:05:02.800Z,0.30
2023-04-24T19:07:30.141Z,0.30
2023-04-24T19:09:57.446Z,0.13
2023-04-24T19:12:24.951Z,0.30
2023-04-24T19:14:52.219Z,0.20
2023-04-24T19:17:24.324Z,0.30
2023-04-24T19:19:52.150Z,0.45
2023-04-24T19:22:20.660Z,0.60
2023-04-24T19:24:47.978Z,0.20
2023-04-24T19:27:15.274Z,0.38
2023-04-24T19:29:42.529Z,0.35
2023-04-24T19:32:09.874Z,0.30
2023-04-24T19:34:39.769Z,0.40
2023-04-24T19:37:08.117Z,0.30
2023-04-24T19:39:35.573Z,0.40
2023-04-24T19:42:07.382Z,0.60
2023-04-24T19:44:35.113Z,0.50
2023-04-24T19:47:02.612Z,0.52
2023-04-24T19:49:30.339Z,0.70
2023-04-24T19:51:57.811Z,0.68
2023-04-24T19:54:25.412Z,0.80
2023-04-24T19:56:52.708Z,0.63
2023-04-24T19:59:19.892Z,1.25
2023-04-24T20:01:47.175Z,1.00
2023-04-24T20:04:14.594Z,0.68
2023-04-24T20:06:41.898Z,0.60
2023-04-24T20:09:09.260Z,0.90
2023-04-24T20:11:36.617Z,0.98
2023-04-24T20:14:03.901Z,0.77
2023-04-24T20:16:31.659Z,0.70
2023-04-24T20:18:59.420Z,0.80
2023-04-24T20:21:26.777Z,1.10
2023-04-24T20:23:54.210Z,0.80
2023-04-24T20:26:21.581Z,0.90
2023-04-24T20:28:49.404Z,1.17
2023-04-24T20:31:17.584Z,0.70
2023-04-24T20:33:45.515Z,1.00
2023-04-24T20:36:13.018Z,0.93
2023-04-24T20:38:40.320Z,0.85
2023-04-24T20:41:08.813Z,0.80
2023-04-24T20:43:36.375Z,1.00
2023-04-24T20:46:03.854Z,0.90
2023-04-24T20:48:31.471Z,0.60
2023-04-24T20:50:59.811Z,0.80
2023-04-24T20:53:27.065Z,0.77
2023-04-24T20:55:54.318Z,0.98
2023-04-24T20:58:22.965Z,0.70
2023-04-24T21:00:50.642Z,0.90
2023-04-24T21:03:17.955Z,0.85
2023-04-24T21:05:45.337Z,0.90
2023-04-24T21:08:12.836Z,0.80
2023-04-24T21:10:40.067Z,1.23
2023-04-24T21:13:07.317Z,1.88
2023-04-24T21:15:34.559Z,1.35
2023-04-24T21:18:02.411Z,1.80
2023-04-24T21:20:29.670Z,1.52
2023-04-24T21:22:56.841Z,1.70
2023-04-24T21:25:24.059Z,1.63
2023-04-24T21:27:51.248Z,1.85
2023-04-24T21:30:19.016Z,1.67
2023-04-24T21:32:46.319Z,1.80
2023-04-24T21:35:14.765Z,1.60
2023-04-24T21:37:43.092Z,1.77
2023-04-24T21:40:15.725Z,1.45
2023-04-24T21:42:43.407Z,1.58
2023-04-24T21:45:11.409Z,1.70
2023-04-24T21:47:38.808Z,1.30
2023-04-24T21:50:06.581Z,1.60
2023-04-24T21:52:34.038Z,1.52
2023-04-24T21:55:01.496Z,1.67
2023-04-24T21:57:29.711Z,1.45
2023-04-24T21:59:56.965Z,1.40
2023-04-24T22:02:24.214Z,1.50
2023-04-24T22:04:52.847Z,1.40
2023-04-24T22:07:20.417Z,1.55
2023-04-24T22:09:47.616Z,1.10
2023-04-24T22:12:15.008Z,1.38
2023-04-24T22:14:42.199Z,1.10
2023-04-24T22:17:10.391Z,1.30
2023-04-24T22:19:37.826Z,1.13
2023-04-24T22:22:05.059Z,1.08
2023-04-24T22:24:32.236Z,1.10
2023-04-24T22:26:59.515Z,1.00
2023-04-24T22:29:26.755Z,1.13
2023-04-24T22:31:56.389Z,0.93
2023-04-24T22:34:23.601Z,1.40
2023-04-24T22:36:50.760Z,1.35
2023-04-24T22:39:18.922Z,1.00
2023-04-24T22:41:46.166Z,1.00
2023-04-24T22:44:13.544Z,1.00
2023-04-24T22:46:40.954Z,1.30
2023-04-24T22:49:09.021Z,1.23
2023-04-24T22:51:36.320Z,0.93
2023-04-24T22:54:07.213Z,1.05
2023-04-24T22:56:35.930Z,1.08
2023-04-24T22:59:04.299Z,1.00
2023-04-24T23:01:31.699Z,0.93
2023-04-24T23:03:59.146Z,1.20
2023-04-24T23:06:26.834Z,1.10
2023-04-24T23:08:53.987Z,1.00
2023-04-24T23:11:21.946Z,0.88
2023-04-24T23:13:49.944Z,1.05
2023-04-24T23:16:17.554Z,1.53
2023-04-24T23:18:44.827Z,0.70
2023-04-24T23:21:12.245Z,1.00
2023-04-24T23:23:39.569Z,0.93
2023-04-24T23:26:06.834Z,0.85
2023-04-24T23:28:36.154Z,0.88
2023-04-24T23:31:03.319Z,0.82
2023-04-24T23:33:30.568Z,0.90
2023-04-24T23:35:58.433Z,0.90
2023-04-24T23:38:25.961Z,1.00
2023-04-24T23:40:53.851Z,1.00
2023-04-24T23:43:21.041Z,0.70
2023-04-24T23:45:48.350Z,0.90
2023-04-24T23:48:15.650Z,0.75
2023-04-24T23:50:43.614Z,0.88
2023-04-24T23:53:11.426Z,0.90
2023-04-24T23:55:38.603Z,0.85
2023-04-24T23:58:05.903Z,1.00
